Cottonwood Station, Arizona
Current Conditions -  °F | °C
As of 2:53 PM on Tuesday 21 Oct 2014 (Local Time) from KGUP Reporting Station
Few Clouds Few Clouds  
Wind Chill: 65°   Ceiling: Unl
Heat Index: 65°   Visibility: 10mi
Dew Point: 42°   Wind: 3mph
Humidity: 43%   Direction: 230°SW
Pressure: 30.09"   Gusts: NA
Location:  36.1012°N, 109.584°W
Report Text: KGUP 212053Z AUTO 23003KT 10SM FEW120 18/06 A3009 RMK AO2 SLP102 T01830056 56023
Loading
Personal Weather Stations






























Interactive Weather Map
Tropical Storm Tracking
New forecast layout! Learn more

10-Day Weather Forecast

Advertisements
Track Severe Weather on mobile